Terminal Aerodrome Forecast
Issued by NWS Jackson, MS

Home | Current Version | Previous Version | Text Only | Print | Product List | Glossary On
Versions: 1 2 3 4 5 6 7 8 9 10 11 12 13
762
FTUS44 KMEG 241720
TAFTUP
TAF
KTUP 241720Z 2418/2518 35009KT P6SM SCT015 BKN025 OVC040
     FM242100 31009KT P6SM VCSH BKN035 OVC045
     FM250100 32005KT P6SM BKN045
     FM250600 36004KT P6SM SCT045
      TEMPO 2508/2512 3SM BR BCFG
     FM251300 01006KT P6SM BKN050 OVC100=

USA.gov is the U.S. government's official web portal to all federal, state and local government web resources and services.